createdAt,value
2022-07-30T00:01:20.144Z,19.03
2022-07-30T00:03:48.999Z,19.00
2022-07-30T00:06:19.799Z,18.98
2022-07-30T00:08:48.069Z,18.97
2022-07-30T00:11:16.850Z,18.95
2022-07-30T00:13:45.113Z,18.94
2022-07-30T00:16:13.391Z,18.91
2022-07-30T00:18:42.283Z,18.89
2022-07-30T00:21:11.413Z,18.87
2022-07-30T00:23:51.129Z,18.84
2022-07-30T00:26:30.424Z,18.82
2022-07-30T00:28:59.236Z,18.78
2022-07-30T00:31:27.986Z,18.76
2022-07-30T00:33:56.264Z,18.74
2022-07-30T00:36:24.974Z,18.71
2022-07-30T00:38:53.285Z,18.67
2022-07-30T00:41:22.973Z,18.64
2022-07-30T00:43:52.538Z,18.63
2022-07-30T00:46:20.910Z,18.62
2022-07-30T00:48:49.274Z,18.60
2022-07-30T00:51:18.171Z,18.57
2022-07-30T00:53:46.422Z,18.55
2022-07-30T00:56:15.876Z,18.53
2022-07-30T00:58:45.505Z,18.51
2022-07-30T01:05:30.127Z,18.45
2022-07-30T01:07:58.920Z,18.43
2022-07-30T01:10:27.244Z,18.41
2022-07-30T01:12:59.311Z,18.39
2022-07-30T01:15:28.170Z,18.37
2022-07-30T01:18:00.236Z,18.36
2022-07-30T01:20:42.286Z,18.34
2022-07-30T01:23:23.668Z,18.31
2022-07-30T01:26:01.147Z,18.28
2022-07-30T01:28:33.941Z,18.26
2022-07-30T01:31:04.875Z,18.24
2022-07-30T01:33:37.479Z,18.23
2022-07-30T01:36:09.315Z,18.22
2022-07-30T01:38:39.391Z,18.20
2022-07-30T01:41:08.703Z,18.18
2022-07-30T01:43:39.353Z,18.16
2022-07-30T01:46:10.296Z,18.16
2022-07-30T01:48:42.877Z,18.15
2022-07-30T01:51:13.454Z,18.14
2022-07-30T01:53:49.312Z,18.13
2022-07-30T01:56:24.886Z,18.12
2022-07-30T01:58:56.336Z,18.13
2022-07-30T02:01:29.229Z,18.13
2022-07-30T02:04:03.472Z,18.14
2022-07-30T02:06:41.415Z,18.13
2022-07-30T02:09:16.396Z,18.10
2022-07-30T02:12:06.133Z,18.06
2022-07-30T02:14:41.614Z,17.99
2022-07-30T02:17:18.719Z,17.94
2022-07-30T02:19:51.891Z,17.91
2022-07-30T02:22:23.425Z,17.89
2022-07-30T02:24:53.889Z,17.85
2022-07-30T02:27:30.524Z,17.83
2022-07-30T02:30:00.921Z,17.81
2022-07-30T02:32:36.254Z,17.78
2022-07-30T02:35:12.298Z,17.78
2022-07-30T02:37:44.484Z,17.77
2022-07-30T02:40:16.733Z,17.75
2022-07-30T02:42:47.601Z,17.71
2022-07-30T02:45:19.270Z,17.69
2022-07-30T02:47:51.578Z,17.66
2022-07-30T02:50:22.286Z,17.62
2022-07-30T02:52:52.356Z,17.59
2022-07-30T02:55:21.806Z,17.58
2022-07-30T02:57:54.076Z,17.57
2022-07-30T03:00:24.673Z,17.56
2022-07-30T03:02:56.965Z,17.55
2022-07-30T03:05:26.906Z,17.53
2022-07-30T03:07:58.267Z,17.52
2022-07-30T03:10:28.872Z,17.50
2022-07-30T03:12:59.910Z,17.48
2022-07-30T03:15:29.933Z,17.46
2022-07-30T03:18:00.237Z,17.43
2022-07-30T03:20:32.478Z,17.42
2022-07-30T03:23:03.267Z,17.41
2022-07-30T03:25:33.019Z,17.41
2022-07-30T03:28:04.174Z,17.40
2022-07-30T03:30:34.908Z,17.39
2022-07-30T03:33:05.602Z,17.39
2022-07-30T03:35:34.972Z,17.38
2022-07-30T03:38:03.879Z,17.38
2022-07-30T03:40:33.074Z,17.39
2022-07-30T03:43:01.928Z,17.40
2022-07-30T03:45:31.475Z,17.40
2022-07-30T03:48:08.191Z,17.43
2022-07-30T03:50:38.685Z,17.53
2022-07-30T03:53:09.526Z,17.57
2022-07-30T03:55:53.635Z,17.54
2022-07-30T03:58:40.888Z,17.54
2022-07-30T04:01:10.258Z,17.50
2022-07-30T04:03:39.038Z,17.47
2022-07-30T04:06:08.791Z,17.42
2022-07-30T04:08:37.170Z,17.39
2022-07-30T04:11:05.444Z,17.37
2022-07-30T04:13:52.426Z,17.39
2022-07-30T04:16:38.956Z,17.42
2022-07-30T04:19:22.421Z,17.42
2022-07-30T04:21:53.963Z,17.40
2022-07-30T04:24:23.613Z,17.39
2022-07-30T04:26:52.965Z,17.40
2022-07-30T04:29:24.628Z,17.41
2022-07-30T04:31:54.989Z,17.41
2022-07-30T04:34:54.291Z,17.40
2022-07-30T04:37:40.857Z,17.40
2022-07-30T04:40:10.274Z,17.41
2022-07-30T04:42:38.673Z,17.42
2022-07-30T04:45:11.729Z,17.42
2022-07-30T04:47:54.069Z,17.43
2022-07-30T04:50:51.728Z,17.44
2022-07-30T04:53:20.822Z,17.43
2022-07-30T04:55:59.472Z,17.41
2022-07-30T04:58:30.303Z,17.42
2022-07-30T05:01:00.812Z,17.44
2022-07-30T05:03:34.662Z,17.49
2022-07-30T05:06:03.439Z,17.53
2022-07-30T05:08:34.488Z,17.59
2022-07-30T05:11:05.816Z,17.67
2022-07-30T05:13:38.119Z,17.75
2022-07-30T05:16:09.752Z,17.87
2022-07-30T05:18:38.363Z,18.00
2022-07-30T05:21:07.298Z,18.25
2022-07-30T05:23:38.640Z,18.58
2022-07-30T05:26:18.773Z,18.92
2022-07-30T05:28:52.193Z,19.22
2022-07-30T05:31:26.323Z,19.53
2022-07-30T05:34:03.404Z,19.88
2022-07-30T05:36:37.662Z,20.12
2022-07-30T05:39:06.652Z,20.12
2022-07-30T05:41:45.709Z,20.02
2022-07-30T05:44:23.596Z,19.88
2022-07-30T05:46:52.679Z,19.77
2022-07-30T05:49:21.601Z,19.71
2022-07-30T05:51:50.849Z,19.68
2022-07-30T05:54:19.577Z,19.74
2022-07-30T05:56:48.277Z,19.84
2022-07-30T05:59:20.863Z,19.94
2022-07-30T06:02:07.065Z,20.09
2022-07-30T06:04:50.395Z,20.17
2022-07-30T06:07:19.367Z,20.24
2022-07-30T06:09:47.831Z,20.36
2022-07-30T06:12:16.239Z,20.54
2022-07-30T06:14:45.132Z,20.77
2022-07-30T06:17:17.333Z,21.04
2022-07-30T06:20:12.069Z,21.40
2022-07-30T06:23:09.687Z,21.90
2022-07-30T06:26:13.907Z,21.99
2022-07-30T06:28:42.526Z,21.87
2022-07-30T06:31:25.180Z,21.82
2022-07-30T06:33:53.624Z,21.71
2022-07-30T06:36:22.061Z,21.61
2022-07-30T06:39:01.151Z,21.48
2022-07-30T06:41:55.838Z,21.43
2022-07-30T06:44:28.183Z,21.33
2022-07-30T06:47:26.366Z,21.17
2022-07-30T06:49:56.190Z,21.09
2022-07-30T06:52:25.113Z,21.02
2022-07-30T06:54:54.206Z,21.02
2022-07-30T06:57:45.633Z,21.04
2022-07-30T07:00:33.786Z,21.19
2022-07-30T07:03:11.262Z,21.37
2022-07-30T07:05:40.131Z,21.52
2022-07-30T07:08:08.949Z,21.70
2022-07-30T07:10:39.823Z,21.70
2022-07-30T07:13:17.675Z,21.70
2022-07-30T07:15:46.079Z,21.79
2022-07-30T07:18:18.485Z,21.87
2022-07-30T07:21:01.337Z,21.88
2022-07-30T07:23:41.384Z,21.90
2022-07-30T07:26:26.368Z,21.85
2022-07-30T07:28:55.036Z,21.81
2022-07-30T07:32:07.209Z,21.78
2022-07-30T07:34:16.805Z,21.79
2022-07-30T07:36:45.479Z,21.84
2022-07-30T07:39:15.158Z,21.85
2022-07-30T07:41:48.427Z,21.94
2022-07-30T07:44:18.369Z,22.02
2022-07-30T07:46:47.240Z,22.04
2022-07-30T07:49:18.567Z,22.14
2022-07-30T07:51:50.823Z,22.40
2022-07-30T07:54:22.654Z,22.58
2022-07-30T07:56:53.480Z,22.71
2022-07-30T07:59:36.276Z,22.72
2022-07-30T08:02:09.440Z,22.73
2022-07-30T08:04:48.135Z,22.79
2022-07-30T08:07:17.272Z,22.89
2022-07-30T08:09:51.353Z,22.94
2022-07-30T08:12:28.815Z,23.01
2022-07-30T08:15:30.795Z,23.13
2022-07-30T08:18:18.122Z,23.21
2022-07-30T08:20:53.598Z,23.24
2022-07-30T08:23:26.124Z,23.28
2022-07-30T08:25:54.519Z,23.34
2022-07-30T08:28:35.498Z,23.41
2022-07-30T08:31:05.501Z,23.33
2022-07-30T08:33:34.238Z,23.23
2022-07-30T08:36:09.223Z,23.20
2022-07-30T08:38:39.832Z,23.19
2022-07-30T08:41:08.854Z,23.24
2022-07-30T08:43:37.791Z,23.31
2022-07-30T08:46:11.224Z,23.31
2022-07-30T08:51:24.280Z,23.39
2022-07-30T08:54:16.761Z,23.28
2022-07-30T08:56:46.125Z,23.25
2022-07-30T08:59:14.730Z,23.35
2022-07-30T09:01:42.907Z,23.49
2022-07-30T09:04:11.784Z,23.69
2022-07-30T09:06:41.081Z,23.84
2022-07-30T09:09:11.511Z,24.03
2022-07-30T09:11:42.758Z,24.13
2022-07-30T09:14:15.193Z,24.10
2022-07-30T09:16:45.713Z,24.13
2022-07-30T09:19:17.484Z,24.16
2022-07-30T09:22:01.321Z,24.09
2022-07-30T09:24:58.457Z,23.98
2022-07-30T09:27:53.011Z,23.89
2022-07-30T09:30:47.568Z,23.82
2022-07-30T09:33:38.436Z,23.86
2022-07-30T09:36:40.782Z,24.02
2022-07-30T09:39:36.559Z,24.19
2022-07-30T09:42:29.164Z,24.28
2022-07-30T09:45:07.919Z,24.33
2022-07-30T09:47:39.659Z,24.27
2022-07-30T09:50:17.887Z,24.16
2022-07-30T09:53:12.111Z,24.23
2022-07-30T09:55:43.244Z,24.21
2022-07-30T09:58:21.614Z,24.27
2022-07-30T10:01:00.328Z,24.51
2022-07-30T10:03:44.192Z,24.68
2022-07-30T10:06:38.010Z,24.54
2022-07-30T10:09:37.307Z,24.50
2022-07-30T10:12:10.681Z,24.58
2022-07-30T10:14:46.954Z,24.62
2022-07-30T10:17:18.398Z,24.61
2022-07-30T10:20:09.083Z,24.73
2022-07-30T10:22:56.939Z,24.67
2022-07-30T10:25:48.849Z,24.60
2022-07-30T10:28:43.634Z,24.56
2022-07-30T10:31:48.489Z,24.47
2022-07-30T10:34:00.610Z,24.48
2022-07-30T10:36:30.545Z,24.36
2022-07-30T10:38:58.843Z,24.29
2022-07-30T10:41:53.913Z,24.28
2022-07-30T10:44:40.929Z,24.26
2022-07-30T10:47:14.316Z,24.33
2022-07-30T10:49:50.574Z,24.47
2022-07-30T10:52:54.948Z,24.43
2022-07-30T10:55:37.051Z,24.41
2022-07-30T10:58:11.353Z,24.46
2022-07-30T11:00:51.803Z,24.56
2022-07-30T11:03:38.754Z,24.64
2022-07-30T11:06:15.430Z,24.70
2022-07-30T11:08:48.196Z,24.68
2022-07-30T11:12:00.961Z,24.61
2022-07-30T11:14:11.374Z,24.58
2022-07-30T11:16:42.232Z,24.53
2022-07-30T11:19:55.560Z,24.42
2022-07-30T11:22:32.948Z,24.28
2022-07-30T11:25:04.493Z,24.24
2022-07-30T11:27:48.637Z,24.21
2022-07-30T11:30:17.921Z,24.14
2022-07-30T11:32:51.595Z,24.13
2022-07-30T11:35:23.150Z,24.06
2022-07-30T11:38:05.449Z,24.00
2022-07-30T11:40:42.669Z,23.97
2022-07-30T11:43:34.540Z,23.82
2022-07-30T11:46:28.516Z,23.68
2022-07-30T11:49:02.759Z,23.56
2022-07-30T11:51:45.635Z,23.49
2022-07-30T11:54:14.814Z,23.41
2022-07-30T11:57:02.104Z,23.31
2022-07-30T11:59:32.712Z,23.08
2022-07-30T12:02:02.520Z,22.87
2022-07-30T12:04:30.952Z,22.73
2022-07-30T12:06:59.816Z,22.67
2022-07-30T12:09:29.682Z,22.70
2022-07-30T12:11:58.067Z,22.64
2022-07-30T12:14:36.743Z,22.56
2022-07-30T12:17:05.364Z,22.47
2022-07-30T12:19:47.732Z,22.38
2022-07-30T12:22:16.901Z,22.32
2022-07-30T12:24:46.041Z,22.23
2022-07-30T12:27:14.406Z,22.17
2022-07-30T12:29:42.727Z,22.10
2022-07-30T12:32:11.466Z,21.92
2022-07-30T12:34:39.708Z,21.77
2022-07-30T12:37:10.382Z,21.66
2022-07-30T12:39:40.584Z,21.60
2022-07-30T12:42:18.990Z,21.52
2022-07-30T12:44:49.532Z,21.46
2022-07-30T12:47:26.148Z,21.35
2022-07-30T12:50:00.002Z,21.21
2022-07-30T12:52:32.302Z,21.08
2022-07-30T12:55:05.290Z,20.98
2022-07-30T12:58:07.669Z,20.86
2022-07-30T13:00:51.305Z,20.71
2022-07-30T13:03:24.405Z,20.63
2022-07-30T13:05:55.504Z,20.65
2022-07-30T13:08:52.213Z,20.59
2022-07-30T13:11:23.624Z,20.45
2022-07-30T13:13:52.683Z,20.40
2022-07-30T13:16:21.636Z,20.34
2022-07-30T13:18:49.998Z,20.25
2022-07-30T13:21:18.264Z,20.16
2022-07-30T13:23:46.871Z,20.10
2022-07-30T13:26:15.326Z,19.98
2022-07-30T13:28:43.611Z,19.88
2022-07-30T13:31:12.768Z,19.84
2022-07-30T13:33:41.021Z,19.79
2022-07-30T13:36:09.740Z,19.75
2022-07-30T13:38:38.185Z,19.70
2022-07-30T13:41:07.365Z,19.65
2022-07-30T13:43:36.185Z,19.61
2022-07-30T13:46:06.057Z,19.56
2022-07-30T13:48:35.972Z,19.54
2022-07-30T13:51:05.357Z,19.53
2022-07-30T13:53:33.924Z,19.51
2022-07-30T13:56:03.708Z,19.47
2022-07-30T13:58:36.030Z,19.40
2022-07-30T14:01:07.463Z,19.37
2022-07-30T14:03:35.971Z,19.38
2022-07-30T14:06:10.672Z,19.38
2022-07-30T14:08:40.010Z,19.38
2022-07-30T14:11:08.621Z,19.36
2022-07-30T14:13:36.958Z,19.36
2022-07-30T14:16:22.728Z,19.37
2022-07-30T14:18:55.715Z,19.32
2022-07-30T14:21:24.656Z,19.28
2022-07-30T14:23:55.127Z,19.22
2022-07-30T14:26:23.472Z,19.13
2022-07-30T14:28:51.837Z,19.09
2022-07-30T14:31:20.064Z,19.13
2022-07-30T14:33:48.465Z,19.15
2022-07-30T14:36:17.378Z,19.14
2022-07-30T14:38:45.653Z,19.14
2022-07-30T14:41:13.957Z,19.17
2022-07-30T14:43:42.544Z,19.17
2022-07-30T14:46:10.770Z,19.16
2022-07-30T14:48:38.998Z,19.14
2022-07-30T14:51:16.217Z,19.09
2022-07-30T14:53:49.578Z,19.04
2022-07-30T14:56:18.310Z,18.97
2022-07-30T14:58:47.012Z,18.94
2022-07-30T15:01:16.073Z,18.89
2022-07-30T15:03:46.457Z,18.83
2022-07-30T15:06:15.724Z,18.82
2022-07-30T15:08:46.158Z,18.81
2022-07-30T15:11:15.886Z,18.81
2022-07-30T15:13:49.810Z,18.77
2022-07-30T15:16:19.831Z,18.74
2022-07-30T15:18:48.145Z,18.76
2022-07-30T15:21:16.713Z,18.75
2022-07-30T15:23:45.067Z,18.72
2022-07-30T15:26:13.405Z,18.69
2022-07-30T15:28:42.144Z,18.67
2022-07-30T15:31:10.756Z,18.67
2022-07-30T15:33:43.187Z,18.63
2022-07-30T15:36:12.140Z,18.62
2022-07-30T15:38:40.455Z,18.61
2022-07-30T15:41:13.266Z,18.59
2022-07-30T15:43:42.108Z,18.56
2022-07-30T15:46:10.452Z,18.58
2022-07-30T15:48:42.172Z,18.56
2022-07-30T15:51:10.720Z,18.51
2022-07-30T15:53:38.941Z,18.52
2022-07-30T15:56:07.293Z,18.51
2022-07-30T15:58:38.261Z,18.48
2022-07-30T16:01:10.485Z,18.47
2022-07-30T16:03:39.146Z,18.49
2022-07-30T16:06:07.646Z,18.50
2022-07-30T16:08:35.887Z,18.45
2022-07-30T16:11:04.811Z,18.41
2022-07-30T16:13:33.115Z,18.38
2022-07-30T16:16:01.431Z,18.35
2022-07-30T16:18:30.083Z,18.34
2022-07-30T16:21:01.267Z,18.37
2022-07-30T16:23:36.213Z,18.38
2022-07-30T16:26:06.235Z,18.38
2022-07-30T16:28:34.488Z,18.35
2022-07-30T16:31:04.252Z,18.33
2022-07-30T16:33:32.943Z,18.34
2022-07-30T16:36:01.226Z,18.34
2022-07-30T16:38:29.972Z,18.29
2022-07-30T16:40:59.024Z,18.23
2022-07-30T16:43:27.954Z,18.22
2022-07-30T16:45:56.569Z,18.18
2022-07-30T16:48:26.448Z,18.15
2022-07-30T16:50:55.493Z,18.15
2022-07-30T16:53:23.802Z,18.14
2022-07-30T16:55:52.870Z,18.12
2022-07-30T16:58:21.403Z,18.09
2022-07-30T17:00:56.813Z,18.09
2022-07-30T17:03:25.787Z,18.10
2022-07-30T17:05:54.171Z,18.08
2022-07-30T17:08:24.679Z,18.04
2022-07-30T17:10:54.045Z,18.03
2022-07-30T17:13:22.382Z,18.02
2022-07-30T17:15:50.839Z,18.02
2022-07-30T17:18:19.294Z,17.99
2022-07-30T17:20:47.842Z,17.97
2022-07-30T17:23:16.401Z,17.95
2022-07-30T17:25:44.641Z,17.93
2022-07-30T17:28:12.969Z,17.92
2022-07-30T17:30:41.444Z,17.91
2022-07-30T17:33:09.743Z,17.92
2022-07-30T17:35:38.128Z,17.92
2022-07-30T17:38:07.509Z,17.88
2022-07-30T17:40:35.798Z,17.84
2022-07-30T17:43:04.720Z,17.79
2022-07-30T17:45:37.519Z,17.76
2022-07-30T17:48:06.706Z,17.75
2022-07-30T17:50:35.863Z,17.72
2022-07-30T17:53:05.809Z,17.70
2022-07-30T17:55:36.782Z,17.68
2022-07-30T17:58:05.784Z,17.68
2022-07-30T18:00:35.511Z,17.68
2022-07-30T18:03:04.180Z,17.65
2022-07-30T18:05:32.752Z,17.62
2022-07-30T18:08:01.092Z,17.60
2022-07-30T18:10:29.865Z,17.61
2022-07-30T18:12:58.238Z,17.59
2022-07-30T18:15:46.494Z,17.57
2022-07-30T18:18:17.275Z,17.56
2022-07-30T18:20:48.468Z,17.55
2022-07-30T18:23:19.301Z,17.53
2022-07-30T18:25:51.520Z,17.50
2022-07-30T18:28:22.253Z,17.50
2022-07-30T18:30:50.956Z,17.50
2022-07-30T18:33:19.840Z,17.47
2022-07-30T18:35:48.823Z,17.46
2022-07-30T18:38:17.355Z,17.43
2022-07-30T18:40:57.695Z,17.42
2022-07-30T18:43:30.477Z,17.41
2022-07-30T18:46:00.522Z,17.39
2022-07-30T18:48:28.889Z,17.38
2022-07-30T18:50:57.213Z,17.36
2022-07-30T18:53:25.613Z,17.32
2022-07-30T18:55:54.129Z,17.28
2022-07-30T18:58:23.251Z,17.27
2022-07-30T19:00:51.526Z,17.25
2022-07-30T19:03:23.035Z,17.24
2022-07-30T19:05:52.267Z,17.24
2022-07-30T19:08:20.839Z,17.22
2022-07-30T19:10:51.783Z,17.21
2022-07-30T19:13:23.656Z,17.20
2022-07-30T19:15:52.407Z,17.19
2022-07-30T19:18:20.719Z,17.19
2022-07-30T19:20:50.772Z,17.17
2022-07-30T19:23:19.229Z,17.16
2022-07-30T19:25:50.131Z,17.15
2022-07-30T19:28:19.406Z,17.13
2022-07-30T19:30:47.849Z,17.11
2022-07-30T19:33:18.908Z,17.11
2022-07-30T19:35:47.366Z,17.10
2022-07-30T19:38:23.960Z,17.10
2022-07-30T19:40:52.637Z,17.08
2022-07-30T19:43:24.051Z,17.08
2022-07-30T19:45:53.270Z,17.07
2022-07-30T19:48:29.578Z,17.09
2022-07-30T19:51:01.702Z,17.07
2022-07-30T19:53:34.384Z,17.08
2022-07-30T19:56:08.391Z,17.08
2022-07-30T19:58:40.242Z,17.06
2022-07-30T20:01:11.202Z,17.06
2022-07-30T20:03:39.677Z,17.04
2022-07-30T20:06:08.721Z,17.03
2022-07-30T20:08:44.753Z,17.01
2022-07-30T20:11:20.842Z,17.00
2022-07-30T20:14:02.058Z,16.99
2022-07-30T20:16:30.573Z,16.99
2022-07-30T20:18:59.787Z,16.97
2022-07-30T20:21:56.247Z,16.96
2022-07-30T20:24:22.169Z,16.95
2022-07-30T20:26:50.751Z,16.94
2022-07-30T20:29:20.734Z,16.93
2022-07-30T20:31:50.415Z,16.94
2022-07-30T20:34:23.630Z,16.93
2022-07-30T20:36:56.586Z,16.92
2022-07-30T20:39:25.872Z,16.90
2022-07-30T20:42:08.090Z,16.89
2022-07-30T20:44:38.924Z,16.88
2022-07-30T20:47:08.143Z,16.87
2022-07-30T20:49:37.461Z,16.87
2022-07-30T20:52:07.440Z,16.87
2022-07-30T20:54:36.544Z,16.85
2022-07-30T20:57:15.669Z,16.85
2022-07-30T20:59:44.229Z,16.84
2022-07-30T21:02:15.105Z,16.83
2022-07-30T21:04:46.293Z,16.83
2022-07-30T21:07:20.553Z,16.82
2022-07-30T21:09:52.544Z,16.82
2022-07-30T21:12:32.458Z,16.81
2022-07-30T21:15:01.565Z,16.79
2022-07-30T21:17:29.950Z,16.78
2022-07-30T21:19:58.705Z,16.77
2022-07-30T21:22:27.187Z,16.76
2022-07-30T21:24:55.597Z,16.75
2022-07-30T21:27:24.859Z,16.75
2022-07-30T21:29:59.155Z,16.75
2022-07-30T21:32:28.397Z,16.72
2022-07-30T21:34:56.892Z,16.71
2022-07-30T21:37:36.522Z,16.70
2022-07-30T21:40:07.819Z,16.68
2022-07-30T21:42:48.800Z,16.65
2022-07-30T21:45:17.353Z,16.64
2022-07-30T21:47:48.231Z,16.62
2022-07-30T21:50:17.346Z,16.61
2022-07-30T21:52:45.637Z,16.59
2022-07-30T21:55:14.254Z,16.57
2022-07-30T21:57:42.437Z,16.57
2022-07-30T22:00:15.629Z,16.57
2022-07-30T22:02:52.766Z,16.56
2022-07-30T22:05:23.480Z,16.55
2022-07-30T22:08:08.872Z,16.55
2022-07-30T22:10:41.266Z,16.53
2022-07-30T22:13:11.403Z,16.51
2022-07-30T22:15:42.975Z,16.50
2022-07-30T22:18:12.156Z,16.49
2022-07-30T22:20:40.547Z,16.48
2022-07-30T22:23:09.215Z,16.48
2022-07-30T22:25:41.597Z,16.48
2022-07-30T22:28:14.012Z,16.49
2022-07-30T22:30:45.385Z,16.48
2022-07-30T22:33:16.768Z,16.49
2022-07-30T22:35:49.484Z,16.48
2022-07-30T22:41:08.129Z,16.46
2022-07-30T22:43:45.506Z,16.45
2022-07-30T22:46:19.024Z,16.44
2022-07-30T22:49:05.453Z,16.41
2022-07-30T22:52:08.831Z,16.40
2022-07-30T22:57:59.912Z,16.34
2022-07-30T23:00:28.775Z,16.33
2022-07-30T23:02:57.751Z,16.31
2022-07-30T23:05:26.436Z,16.28
2022-07-30T23:07:55.694Z,16.25
2022-07-30T23:10:25.702Z,16.24
2022-07-30T23:12:32.684Z,16.47
2022-07-30T23:12:33.746Z,16.37
2022-07-30T23:12:57.195Z,16.24
2022-07-30T23:15:25.482Z,16.24
2022-07-30T23:17:53.714Z,16.22
2022-07-30T23:20:22.475Z,16.21
2022-07-30T23:22:50.950Z,16.20
2022-07-30T23:25:21.226Z,16.19
2022-07-30T23:27:50.192Z,16.19
2022-07-30T23:30:18.343Z,16.17
2022-07-30T23:32:46.627Z,16.14
2022-07-30T23:35:16.763Z,16.13
2022-07-30T23:37:48.275Z,16.14
2022-07-30T23:40:19.045Z,16.14
2022-07-30T23:42:50.223Z,16.12
2022-07-30T23:45:19.214Z,16.10
2022-07-30T23:48:00.694Z,16.07
2022-07-30T23:50:32.845Z,16.07
2022-07-30T23:53:02.123Z,16.05
2022-07-30T23:55:32.048Z,16.03
2022-07-30T23:58:00.667Z,16.03
